To NAV CANADA Home Page Login to a new session Search on AWWS site Feedback and Comments Disclaimer Vers la page française équivalente Tips FAQ What's new on the site To the Forecasts and Observations / NOTAM section To "File a Flight Plan" website Publications and other links Update of the User's profile FIC Telephone Numbers My Weather Data Folder Route Weather Data Regional Weather Data Local Weather Data To the Forecasts and Observations / NOTAM section
Request Generated 01/17/2017 at 04:48:21 UTC . Weather information available at that time is displayed.

METAR/TAF

LYNN LAKE/MB    (show WxCam)

METAR CYYL 170400Z AUTO 21009KT 9SM CLR M02/M03 A2942 RMK SLP989=
METAR CYYL 170300Z AUTO 21009G15KT 9SM FEW120 M02/M03 A2945 RMK
SLP999=
METAR CYYL 170200Z AUTO 20008G15KT 9SM FEW110 M02/M03 A2948 RMK
SLP008=

TAF CYYL 170038Z 1701/1713 19010KT P6SM BKN150
FM171100 23012KT P6SM BKN060 PROB30 1711/1713 5SM -FZRA BR
RMK FCST BASED ON AUTO OBS. NXT FCST BY 170700Z=
Your time UTC time
Weather data provided by Environment Canada and NAV CANADA